Date,TemperatureHighF,TemperatureAvgF,TemperatureLowF,DewpointHighF,DewpointAvgF,DewpointLowF,HumidityHigh,HumidityAvg,HumidityLow,PressureMaxIn,PressureMinIn,WindSpeedMaxMPH,WindSpeedAvgMPH,GustSpeedMaxMPH,PrecipitationSumIn
2013-2-1,63.0,53.9,40.0,30.0,15.7,-99.9,47,26,20,30.56,30.47,4,-98,0,0.00
2013-2-2,66.0,55.5,35.0,27.0,10.6,-99.9,51,22,10,30.63,30.51,5,-45,0,0.00
2013-2-3,60.0,52.3,45.0,36.0,14.0,-99.9,49,28,19,30.54,30.34,12,-101,0,0.00
2013-2-4,63.0,54.4,42.0,39.0,31.4,-99.9,73,44,30,30.42,30.29,10,-190,0,0.00
2013-2-5,65.0,53.3,37.0,39.0,14.0,-99.9,80,40,24,30.42,30.27,7,-355,0,0.00
2013-2-6,63.0,54.5,41.0,33.0,14.3,-99.9,65,32,24,30.39,30.25,11,-177,0,0.00
2013-2-7,60.0,47.6,35.0,36.0,26.4,-99.9,83,52,24,30.47,30.34,6,-28,0,0.00
2013-2-8,64.0,57.1,49.0,19.0,10.2,0.0,29,16,9,30.27,30.13,19,-47,0,0.00
2013-2-9,49.0,40.3,31.0,28.0,23.3,17.0,80,52,29,30.24,30.06,21,3,0,0.00
2013-2-10,51.0,42.6,33.0,22.0,-0.3,-99.9,56,28,17,30.31,30.19,15,-157,0,0.00
2013-2-11,45.0,34.6,24.0,31.0,-2.1,-99.9,70,39,26,30.30,30.22,18,-465,0,0.00
2013-2-12,45.0,34.0,23.0,25.0,7.0,-99.9,80,49,21,30.49,30.43,5,-301,0,0.00
2013-2-13,55.0,39.4,22.0,21.0,11.2,-99.9,71,38,17,30.49,30.36,4,-70,0,0.00
2013-2-14,61.0,45.6,27.0,20.0,-1.9,-99.9,68,25,14,30.45,30.34,9,-131,0,0.00
2013-2-15,61.0,57.8,54.0,18.0,11.5,1.0,23,17,10,30.59,30.51,10,-769,0,0.00
2013-2-16,64.0,49.5,35.0,14.0,7.2,-99.9,39,21,8,30.65,30.41,6,-116,0,0.00
2013-2-17,67.0,49.6,28.0,11.0,6.9,2.0,45,21,8,30.41,30.18,23,7,0,0.00
2013-2-18,62.0,49.7,35.0,14.0,9.0,5.0,36,20,10,30.41,30.27,8,-12,0,0.00
2013-2-19,59.0,50.7,39.0,35.0,21.5,7.0,64,33,17,30.31,30.04,20,-48,0,0.00
2013-2-20,48.0,33.5,28.0,30.0,24.1,19.0,87,70,31,30.17,29.91,25,12,0,0.00
2013-2-21,42.0,34.7,23.0,30.0,25.2,19.0,85,68,50,30.30,30.17,8,3,0,0.00
2013-2-22,49.0,38.5,27.0,30.0,25.9,18.0,86,63,32,30.43,30.24,11,4,0,0.00
2013-2-23,62.0,42.1,24.0,27.0,21.3,15.0,84,50,18,30.43,30.15,8,3,0,0.00
2013-2-24,47.0,47.0,47.0,20.0,20.0,7.0,34,34,34,30.32,30.16,5,4,0,0.00
2013-2-25,54.0,37.8,22.0,14.0,10.0,7.0,60,34,16,30.45,30.32,10,3,0,0.00
2013-2-26,59.0,41.5,23.0,18.0,11.1,2.0,67,34,10,30.39,30.22,12,4,0,0.00
2013-2-27,56.0,40.9,26.0,14.0,5.7,0.0,55,26,12,30.51,30.38,7,3,0,0.00
2013-2-28,57.0,44.5,30.0,8.0,2.7,-2.0,36,19,9,30.63,30.47,8,3,0,0.00